sensor_id;sensor_type;location;lat;lon;timestamp;temperature;humidity
42907;DHT22;28552;51.146;6.576;2023-07-22T00:00:46;14.00;99.90
42907;DHT22;28552;51.146;6.576;2023-07-22T00:03:46;13.90;99.90
42907;DHT22;28552;51.146;6.576;2023-07-22T00:06:47;13.90;99.90
42907;DHT22;28552;51.146;6.576;2023-07-22T00:09:47;13.90;99.90
42907;DHT22;28552;51.146;6.576;2023-07-22T00:12:50;13.90;99.90
42907;DHT22;28552;51.146;6.576;2023-07-22T00:15:51;13.90;99.90
42907;DHT22;28552;51.146;6.576;2023-07-22T00:18:53;13.90;99.90
42907;DHT22;28552;51.146;6.576;2023-07-22T00:21:54;13.90;99.90
42907;DHT22;28552;51.146;6.576;2023-07-22T00:24:54;13.90;99.90
42907;DHT22;28552;51.146;6.576;2023-07-22T00:27:55;13.90;99.90
42907;DHT22;28552;51.146;6.576;2023-07-22T00:30:57;14.00;99.90
42907;DHT22;28552;51.146;6.576;2023-07-22T00:33:57;14.00;99.90
42907;DHT22;28552;51.146;6.576;2023-07-22T00:36:58;14.00;99.90
42907;DHT22;28552;51.146;6.576;2023-07-22T00:40:00;14.00;99.90
42907;DHT22;28552;51.146;6.576;2023-07-22T00:43:01;14.00;99.90
42907;DHT22;28552;51.146;6.576;2023-07-22T00:46:01;14.00;99.90
42907;DHT22;28552;51.146;6.576;2023-07-22T00:49:02;14.00;99.90
42907;DHT22;28552;51.146;6.576;2023-07-22T00:52:05;14.00;99.90
42907;DHT22;28552;51.146;6.576;2023-07-22T00:55:06;14.10;99.90
42907;DHT22;28552;51.146;6.576;2023-07-22T00:58:07;14.00;99.90
42907;DHT22;28552;51.146;6.576;2023-07-22T01:01:07;14.00;99.90
42907;DHT22;28552;51.146;6.576;2023-07-22T01:04:08;13.90;99.90
42907;DHT22;28552;51.146;6.576;2023-07-22T01:07:09;13.90;99.90
42907;DHT22;28552;51.146;6.576;2023-07-22T01:10:12;13.90;99.90
42907;DHT22;28552;51.146;6.576;2023-07-22T01:13:13;13.80;99.90
42907;DHT22;28552;51.146;6.576;2023-07-22T01:16:13;13.80;99.90
42907;DHT22;28552;51.146;6.576;2023-07-22T01:19:15;13.90;99.90
42907;DHT22;28552;51.146;6.576;2023-07-22T01:22:19;13.90;99.90
42907;DHT22;28552;51.146;6.576;2023-07-22T01:25:21;13.90;99.90
42907;DHT22;28552;51.146;6.576;2023-07-22T01:28:22;13.90;99.90
42907;DHT22;28552;51.146;6.576;2023-07-22T01:31:22;13.90;99.90
42907;DHT22;28552;51.146;6.576;2023-07-22T01:34:23;13.90;99.90
42907;DHT22;28552;51.146;6.576;2023-07-22T01:37:25;13.90;99.90
42907;DHT22;28552;51.146;6.576;2023-07-22T01:40:25;13.80;99.90
42907;DHT22;28552;51.146;6.576;2023-07-22T01:43:26;13.80;99.90
42907;DHT22;28552;51.146;6.576;2023-07-22T01:46:26;13.80;99.90
42907;DHT22;28552;51.146;6.576;2023-07-22T01:49:27;13.70;99.90
42907;DHT22;28552;51.146;6.576;2023-07-22T01:52:28;13.70;99.90
42907;DHT22;28552;51.146;6.576;2023-07-22T01:55:28;13.70;99.90
42907;DHT22;28552;51.146;6.576;2023-07-22T01:58:29;13.70;99.90
42907;DHT22;28552;51.146;6.576;2023-07-22T02:01:29;13.60;99.90
42907;DHT22;28552;51.146;6.576;2023-07-22T02:04:30;13.60;99.90
42907;DHT22;28552;51.146;6.576;2023-07-22T02:07:31;13.50;99.90
42907;DHT22;28552;51.146;6.576;2023-07-22T02:10:31;13.50;99.90
42907;DHT22;28552;51.146;6.576;2023-07-22T02:13:33;13.50;99.90
42907;DHT22;28552;51.146;6.576;2023-07-22T02:16:35;13.50;99.90
42907;DHT22;28552;51.146;6.576;2023-07-22T02:19:37;13.50;99.90
42907;DHT22;28552;51.146;6.576;2023-07-22T02:22:37;13.50;99.90
42907;DHT22;28552;51.146;6.576;2023-07-22T02:25:38;13.50;99.90
42907;DHT22;28552;51.146;6.576;2023-07-22T02:28:38;13.50;99.90
42907;DHT22;28552;51.146;6.576;2023-07-22T02:31:39;13.50;99.90
42907;DHT22;28552;51.146;6.576;2023-07-22T02:34:40;13.50;99.90
42907;DHT22;28552;51.146;6.576;2023-07-22T02:37:41;13.50;99.90
42907;DHT22;28552;51.146;6.576;2023-07-22T02:40:41;13.40;99.90
42907;DHT22;28552;51.146;6.576;2023-07-22T02:43:42;13.40;99.90
42907;DHT22;28552;51.146;6.576;2023-07-22T02:46:43;13.40;99.90
42907;DHT22;28552;51.146;6.576;2023-07-22T02:49:44;13.30;99.90
42907;DHT22;28552;51.146;6.576;2023-07-22T02:52:45;13.20;99.90
42907;DHT22;28552;51.146;6.576;2023-07-22T02:55:46;13.10;99.90
42907;DHT22;28552;51.146;6.576;2023-07-22T02:58:46;13.10;99.90
42907;DHT22;28552;51.146;6.576;2023-07-22T03:01:48;13.10;99.90
42907;DHT22;28552;51.146;6.576;2023-07-22T03:04:48;13.10;99.90
42907;DHT22;28552;51.146;6.576;2023-07-22T03:07:49;13.10;99.90
42907;DHT22;28552;51.146;6.576;2023-07-22T03:10:50;13.00;99.90
42907;DHT22;28552;51.146;6.576;2023-07-22T03:13:51;13.00;99.90
42907;DHT22;28552;51.146;6.576;2023-07-22T03:16:51;13.00;99.90
42907;DHT22;28552;51.146;6.576;2023-07-22T03:19:52;13.00;99.90
42907;DHT22;28552;51.146;6.576;2023-07-22T03:22:52;12.90;99.90
42907;DHT22;28552;51.146;6.576;2023-07-22T03:25:54;12.90;99.90
42907;DHT22;28552;51.146;6.576;2023-07-22T03:28:55;12.80;99.90
42907;DHT22;28552;51.146;6.576;2023-07-22T03:31:55;12.80;99.90
42907;DHT22;28552;51.146;6.576;2023-07-22T03:34:57;12.80;99.90
42907;DHT22;28552;51.146;6.576;2023-07-22T03:37:58;12.80;99.90
42907;DHT22;28552;51.146;6.576;2023-07-22T03:40:58;12.80;99.90
42907;DHT22;28552;51.146;6.576;2023-07-22T03:43:59;12.80;99.90
42907;DHT22;28552;51.146;6.576;2023-07-22T03:47:00;12.80;99.90
42907;DHT22;28552;51.146;6.576;2023-07-22T03:50:00;12.80;99.90
42907;DHT22;28552;51.146;6.576;2023-07-22T03:53:01;12.80;99.90
42907;DHT22;28552;51.146;6.576;2023-07-22T03:56:01;12.80;99.90
42907;DHT22;28552;51.146;6.576;2023-07-22T03:59:02;12.80;99.90
42907;DHT22;28552;51.146;6.576;2023-07-22T04:02:02;12.90;99.90
42907;DHT22;28552;51.146;6.576;2023-07-22T04:05:03;12.90;99.90
42907;DHT22;28552;51.146;6.576;2023-07-22T04:08:04;13.00;99.90
42907;DHT22;28552;51.146;6.576;2023-07-22T04:11:04;13.00;99.90
42907;DHT22;28552;51.146;6.576;2023-07-22T04:14:05;13.00;99.90
42907;DHT22;28552;51.146;6.576;2023-07-22T04:17:06;13.10;99.90
42907;DHT22;28552;51.146;6.576;2023-07-22T04:20:07;13.10;99.90
42907;DHT22;28552;51.146;6.576;2023-07-22T04:23:09;13.10;99.90
42907;DHT22;28552;51.146;6.576;2023-07-22T04:26:09;13.20;99.90
42907;DHT22;28552;51.146;6.576;2023-07-22T04:29:10;13.20;99.90
42907;DHT22;28552;51.146;6.576;2023-07-22T04:32:12;13.20;99.90
42907;DHT22;28552;51.146;6.576;2023-07-22T04:35:13;13.30;99.90
42907;DHT22;28552;51.146;6.576;2023-07-22T04:38:13;13.30;99.90
42907;DHT22;28552;51.146;6.576;2023-07-22T04:41:14;13.40;99.90
42907;DHT22;28552;51.146;6.576;2023-07-22T04:44:15;13.50;99.90
42907;DHT22;28552;51.146;6.576;2023-07-22T04:47:15;13.50;99.90
42907;DHT22;28552;51.146;6.576;2023-07-22T04:50:17;13.60;99.90
42907;DHT22;28552;51.146;6.576;2023-07-22T04:53:18;13.60;99.90
42907;DHT22;28552;51.146;6.576;2023-07-22T04:56:18;13.60;99.90
42907;DHT22;28552;51.146;6.576;2023-07-22T04:59:19;13.60;99.90
42907;DHT22;28552;51.146;6.576;2023-07-22T05:02:19;13.60;99.90
42907;DHT22;28552;51.146;6.576;2023-07-22T05:05:20;13.70;99.90
42907;DHT22;28552;51.146;6.576;2023-07-22T05:08:22;13.60;99.90
42907;DHT22;28552;51.146;6.576;2023-07-22T05:11:22;13.70;99.90
42907;DHT22;28552;51.146;6.576;2023-07-22T05:14:24;13.70;99.90
42907;DHT22;28552;51.146;6.576;2023-07-22T05:17:24;13.70;99.90
42907;DHT22;28552;51.146;6.576;2023-07-22T05:20:26;13.80;99.90
42907;DHT22;28552;51.146;6.576;2023-07-22T05:23:26;13.80;99.90
42907;DHT22;28552;51.146;6.576;2023-07-22T05:26:27;13.80;99.90
42907;DHT22;28552;51.146;6.576;2023-07-22T05:29:27;13.90;99.90
42907;DHT22;28552;51.146;6.576;2023-07-22T05:32:28;14.00;99.90
42907;DHT22;28552;51.146;6.576;2023-07-22T05:35:30;14.10;99.90
42907;DHT22;28552;51.146;6.576;2023-07-22T05:38:30;14.20;99.90
42907;DHT22;28552;51.146;6.576;2023-07-22T05:41:33;14.20;99.90
42907;DHT22;28552;51.146;6.576;2023-07-22T05:44:33;14.30;99.90
42907;DHT22;28552;51.146;6.576;2023-07-22T05:47:34;14.30;99.90
42907;DHT22;28552;51.146;6.576;2023-07-22T05:50:34;14.40;99.90
42907;DHT22;28552;51.146;6.576;2023-07-22T05:53:35;14.40;99.90
42907;DHT22;28552;51.146;6.576;2023-07-22T05:56:36;14.40;99.90
42907;DHT22;28552;51.146;6.576;2023-07-22T05:59:36;14.50;99.90
42907;DHT22;28552;51.146;6.576;2023-07-22T06:02:37;14.50;99.90
42907;DHT22;28552;51.146;6.576;2023-07-22T06:05:37;14.60;99.90
42907;DHT22;28552;51.146;6.576;2023-07-22T06:08:38;14.70;99.90
42907;DHT22;28552;51.146;6.576;2023-07-22T06:11:38;14.80;99.90
42907;DHT22;28552;51.146;6.576;2023-07-22T06:14:39;14.90;99.90
42907;DHT22;28552;51.146;6.576;2023-07-22T06:17:39;14.90;99.90
42907;DHT22;28552;51.146;6.576;2023-07-22T06:20:40;15.00;99.90
42907;DHT22;28552;51.146;6.576;2023-07-22T06:23:41;15.30;99.90
42907;DHT22;28552;51.146;6.576;2023-07-22T06:26:42;15.50;99.90
42907;DHT22;28552;51.146;6.576;2023-07-22T06:29:42;15.60;99.90
42907;DHT22;28552;51.146;6.576;2023-07-22T06:32:43;15.80;99.90
42907;DHT22;28552;51.146;6.576;2023-07-22T06:35:43;15.90;99.90
42907;DHT22;28552;51.146;6.576;2023-07-22T06:38:44;16.00;99.90
42907;DHT22;28552;51.146;6.576;2023-07-22T06:41:44;16.00;99.90
42907;DHT22;28552;51.146;6.576;2023-07-22T06:44:45;16.10;99.90
42907;DHT22;28552;51.146;6.576;2023-07-22T06:47:45;16.10;99.90
42907;DHT22;28552;51.146;6.576;2023-07-22T06:50:48;16.20;99.90
42907;DHT22;28552;51.146;6.576;2023-07-22T06:53:49;16.30;99.90
42907;DHT22;28552;51.146;6.576;2023-07-22T06:56:49;16.40;99.90
42907;DHT22;28552;51.146;6.576;2023-07-22T06:59:50;16.50;99.90
42907;DHT22;28552;51.146;6.576;2023-07-22T07:02:51;16.60;99.90
42907;DHT22;28552;51.146;6.576;2023-07-22T07:05:53;16.60;99.90
42907;DHT22;28552;51.146;6.576;2023-07-22T07:08:54;16.60;99.90
42907;DHT22;28552;51.146;6.576;2023-07-22T07:11:55;16.70;99.90
42907;DHT22;28552;51.146;6.576;2023-07-22T07:14:57;16.80;99.90
42907;DHT22;28552;51.146;6.576;2023-07-22T07:17:58;16.90;99.90
42907;DHT22;28552;51.146;6.576;2023-07-22T07:20:58;17.00;99.90
42907;DHT22;28552;51.146;6.576;2023-07-22T07:23:59;17.20;99.90
42907;DHT22;28552;51.146;6.576;2023-07-22T07:26:59;17.40;99.90
42907;DHT22;28552;51.146;6.576;2023-07-22T07:30:00;17.50;99.90
42907;DHT22;28552;51.146;6.576;2023-07-22T07:33:00;17.50;99.90
42907;DHT22;28552;51.146;6.576;2023-07-22T07:36:01;17.50;99.90
42907;DHT22;28552;51.146;6.576;2023-07-22T07:39:03;17.50;99.90
42907;DHT22;28552;51.146;6.576;2023-07-22T07:42:04;17.50;99.90
42907;DHT22;28552;51.146;6.576;2023-07-22T07:45:05;17.60;99.90
42907;DHT22;28552;51.146;6.576;2023-07-22T07:48:06;17.60;99.90
42907;DHT22;28552;51.146;6.576;2023-07-22T07:51:07;17.60;99.90
42907;DHT22;28552;51.146;6.576;2023-07-22T07:54:07;17.70;99.90
42907;DHT22;28552;51.146;6.576;2023-07-22T07:57:08;17.70;99.90
42907;DHT22;28552;51.146;6.576;2023-07-22T08:00:09;17.80;99.90
42907;DHT22;28552;51.146;6.576;2023-07-22T08:03:09;17.90;99.90
42907;DHT22;28552;51.146;6.576;2023-07-22T08:06:10;18.00;99.90
42907;DHT22;28552;51.146;6.576;2023-07-22T08:09:11;18.10;99.90
42907;DHT22;28552;51.146;6.576;2023-07-22T08:12:18;18.20;99.90
42907;DHT22;28552;51.146;6.576;2023-07-22T08:15:19;18.10;99.90
42907;DHT22;28552;51.146;6.576;2023-07-22T08:18:19;18.20;99.90
42907;DHT22;28552;51.146;6.576;2023-07-22T08:21:20;18.20;99.90
42907;DHT22;28552;51.146;6.576;2023-07-22T08:24:20;18.10;99.90
42907;DHT22;28552;51.146;6.576;2023-07-22T08:27:21;18.10;99.90
42907;DHT22;28552;51.146;6.576;2023-07-22T08:30:25;18.20;99.90
42907;DHT22;28552;51.146;6.576;2023-07-22T08:33:26;18.30;99.90
42907;DHT22;28552;51.146;6.576;2023-07-22T08:36:27;18.40;99.90
42907;DHT22;28552;51.146;6.576;2023-07-22T08:39:27;18.50;99.90
42907;DHT22;28552;51.146;6.576;2023-07-22T08:42:29;18.70;99.90
42907;DHT22;28552;51.146;6.576;2023-07-22T08:45:32;18.80;99.90
42907;DHT22;28552;51.146;6.576;2023-07-22T08:48:36;19.00;99.90
42907;DHT22;28552;51.146;6.576;2023-07-22T08:51:39;19.20;99.90
42907;DHT22;28552;51.146;6.576;2023-07-22T08:54:40;19.30;99.70
42907;DHT22;28552;51.146;6.576;2023-07-22T08:57:42;19.30;99.60
42907;DHT22;28552;51.146;6.576;2023-07-22T09:00:45;19.40;99.40
42907;DHT22;28552;51.146;6.576;2023-07-22T09:03:48;19.50;99.30
42907;DHT22;28552;51.146;6.576;2023-07-22T09:06:49;19.70;99.10
42907;DHT22;28552;51.146;6.576;2023-07-22T09:09:50;19.90;98.60
42907;DHT22;28552;51.146;6.576;2023-07-22T09:12:51;20.00;98.10
42907;DHT22;28552;51.146;6.576;2023-07-22T09:15:53;20.10;97.50
42907;DHT22;28552;51.146;6.576;2023-07-22T09:18:57;20.20;95.90
42907;DHT22;28552;51.146;6.576;2023-07-22T09:21:58;20.10;95.50
42907;DHT22;28552;51.146;6.576;2023-07-22T09:28:15;20.00;95.70
42907;DHT22;28552;51.146;6.576;2023-07-22T09:31:16;20.10;95.50
42907;DHT22;28552;51.146;6.576;2023-07-22T09:34:17;20.20;95.30
42907;DHT22;28552;51.146;6.576;2023-07-22T09:37:17;20.30;95.00
42907;DHT22;28552;51.146;6.576;2023-07-22T09:40:24;20.30;95.10
42907;DHT22;28552;51.146;6.576;2023-07-22T09:43:25;20.40;95.10
42907;DHT22;28552;51.146;6.576;2023-07-22T09:46:31;20.30;94.10
42907;DHT22;28552;51.146;6.576;2023-07-22T09:49:33;20.20;94.60
42907;DHT22;28552;51.146;6.576;2023-07-22T09:52:33;20.10;94.20
42907;DHT22;28552;51.146;6.576;2023-07-22T09:55:40;20.00;94.30
42907;DHT22;28552;51.146;6.576;2023-07-22T09:58:41;20.00;94.60
42907;DHT22;28552;51.146;6.576;2023-07-22T10:01:46;20.00;94.70
42907;DHT22;28552;51.146;6.576;2023-07-22T10:04:48;20.00;94.30
42907;DHT22;28552;51.146;6.576;2023-07-22T10:07:54;20.00;94.50
42907;DHT22;28552;51.146;6.576;2023-07-22T10:10:57;20.10;94.40
42907;DHT22;28552;51.146;6.576;2023-07-22T10:13:58;20.10;94.50
42907;DHT22;28552;51.146;6.576;2023-07-22T10:16:59;20.20;93.40
42907;DHT22;28552;51.146;6.576;2023-07-22T10:20:00;20.30;94.00
42907;DHT22;28552;51.146;6.576;2023-07-22T10:23:01;20.40;94.10
42907;DHT22;28552;51.146;6.576;2023-07-22T10:26:02;20.50;93.50
42907;DHT22;28552;51.146;6.576;2023-07-22T10:29:03;20.60;93.80
42907;DHT22;28552;51.146;6.576;2023-07-22T10:32:05;20.70;93.50
42907;DHT22;28552;51.146;6.576;2023-07-22T10:35:09;20.70;93.50
42907;DHT22;28552;51.146;6.576;2023-07-22T10:38:12;20.70;93.20
42907;DHT22;28552;51.146;6.576;2023-07-22T10:41:15;20.80;92.80
42907;DHT22;28552;51.146;6.576;2023-07-22T10:44:19;20.90;92.60
42907;DHT22;28552;51.146;6.576;2023-07-22T10:47:34;21.00;92.30
42907;DHT22;28552;51.146;6.576;2023-07-22T10:50:39;21.20;92.20
42907;DHT22;28552;51.146;6.576;2023-07-22T10:53:43;21.40;91.90
42907;DHT22;28552;51.146;6.576;2023-07-22T10:56:44;21.40;91.60
42907;DHT22;28552;51.146;6.576;2023-07-22T10:59:50;21.50;91.50
42907;DHT22;28552;51.146;6.576;2023-07-22T11:03:09;21.50;91.20
42907;DHT22;28552;51.146;6.576;2023-07-22T11:06:10;21.60;90.90
42907;DHT22;28552;51.146;6.576;2023-07-22T11:12:33;21.90;90.60
42907;DHT22;28552;51.146;6.576;2023-07-22T11:15:34;22.00;90.50
42907;DHT22;28552;51.146;6.576;2023-07-22T11:18:37;22.00;90.40
42907;DHT22;28552;51.146;6.576;2023-07-22T11:21:37;21.90;90.50
42907;DHT22;28552;51.146;6.576;2023-07-22T11:24:38;22.00;90.50
42907;DHT22;28552;51.146;6.576;2023-07-22T11:27:39;22.00;90.30
42907;DHT22;28552;51.146;6.576;2023-07-22T11:30:40;22.00;90.00
42907;DHT22;28552;51.146;6.576;2023-07-22T11:33:41;22.00;89.60
42907;DHT22;28552;51.146;6.576;2023-07-22T11:36:44;22.10;89.80
42907;DHT22;28552;51.146;6.576;2023-07-22T11:39:45;22.20;89.80
42907;DHT22;28552;51.146;6.576;2023-07-22T11:42:46;22.20;89.70
42907;DHT22;28552;51.146;6.576;2023-07-22T11:45:47;22.20;89.70
42907;DHT22;28552;51.146;6.576;2023-07-22T11:48:50;22.30;89.70
42907;DHT22;28552;51.146;6.576;2023-07-22T11:51:55;22.40;89.10
42907;DHT22;28552;51.146;6.576;2023-07-22T11:55:01;22.50;88.10
42907;DHT22;28552;51.146;6.576;2023-07-22T11:58:03;22.50;87.50
42907;DHT22;28552;51.146;6.576;2023-07-22T12:01:06;22.50;87.00
42907;DHT22;28552;51.146;6.576;2023-07-22T12:04:11;22.60;87.10
42907;DHT22;28552;51.146;6.576;2023-07-22T12:07:28;22.60;88.20
42907;DHT22;28552;51.146;6.576;2023-07-22T12:10:28;22.70;85.70
42907;DHT22;28552;51.146;6.576;2023-07-22T12:13:29;22.70;84.50
42907;DHT22;28552;51.146;6.576;2023-07-22T12:16:37;22.70;84.80
42907;DHT22;28552;51.146;6.576;2023-07-22T12:19:38;22.70;84.30
42907;DHT22;28552;51.146;6.576;2023-07-22T12:22:38;22.70;84.20
42907;DHT22;28552;51.146;6.576;2023-07-22T12:25:39;22.70;83.70
42907;DHT22;28552;51.146;6.576;2023-07-22T12:28:39;22.70;83.40
42907;DHT22;28552;51.146;6.576;2023-07-22T12:31:40;22.80;78.60
42907;DHT22;28552;51.146;6.576;2023-07-22T12:34:40;22.80;76.00
42907;DHT22;28552;51.146;6.576;2023-07-22T12:37:41;22.90;76.60
42907;DHT22;28552;51.146;6.576;2023-07-22T12:40:41;22.90;75.80
42907;DHT22;28552;51.146;6.576;2023-07-22T12:43:42;23.00;74.00
42907;DHT22;28552;51.146;6.576;2023-07-22T12:46:42;23.10;73.60
42907;DHT22;28552;51.146;6.576;2023-07-22T12:49:43;23.10;71.90
42907;DHT22;28552;51.146;6.576;2023-07-22T12:52:43;23.20;71.10
42907;DHT22;28552;51.146;6.576;2023-07-22T12:55:44;23.20;71.80
42907;DHT22;28552;51.146;6.576;2023-07-22T12:58:44;23.30;71.40
42907;DHT22;28552;51.146;6.576;2023-07-22T13:01:45;23.40;71.40
42907;DHT22;28552;51.146;6.576;2023-07-22T13:04:46;23.30;66.80
42907;DHT22;28552;51.146;6.576;2023-07-22T13:07:47;23.30;68.50
42907;DHT22;28552;51.146;6.576;2023-07-22T13:10:48;23.40;67.90
42907;DHT22;28552;51.146;6.576;2023-07-22T13:13:48;23.50;68.20
42907;DHT22;28552;51.146;6.576;2023-07-22T13:16:49;23.50;67.10
42907;DHT22;28552;51.146;6.576;2023-07-22T13:19:49;23.60;67.50
42907;DHT22;28552;51.146;6.576;2023-07-22T13:22:50;23.60;66.90
42907;DHT22;28552;51.146;6.576;2023-07-22T13:25:51;23.50;66.50
42907;DHT22;28552;51.146;6.576;2023-07-22T13:28:51;23.50;67.40
42907;DHT22;28552;51.146;6.576;2023-07-22T13:31:52;23.60;66.40
42907;DHT22;28552;51.146;6.576;2023-07-22T13:34:53;23.60;66.70
42907;DHT22;28552;51.146;6.576;2023-07-22T13:37:54;23.60;66.80
42907;DHT22;28552;51.146;6.576;2023-07-22T13:40:55;23.60;67.30
42907;DHT22;28552;51.146;6.576;2023-07-22T13:43:55;23.60;67.80
42907;DHT22;28552;51.146;6.576;2023-07-22T13:46:56;23.70;68.20
42907;DHT22;28552;51.146;6.576;2023-07-22T13:49:56;23.70;67.00
42907;DHT22;28552;51.146;6.576;2023-07-22T13:52:57;23.60;67.40
42907;DHT22;28552;51.146;6.576;2023-07-22T13:55:57;23.50;68.80
42907;DHT22;28552;51.146;6.576;2023-07-22T13:58:59;23.60;68.50
42907;DHT22;28552;51.146;6.576;2023-07-22T14:02:01;23.60;68.40
42907;DHT22;28552;51.146;6.576;2023-07-22T14:05:01;23.60;68.00
42907;DHT22;28552;51.146;6.576;2023-07-22T14:08:02;23.70;68.20
42907;DHT22;28552;51.146;6.576;2023-07-22T14:11:03;23.70;68.40
42907;DHT22;28552;51.146;6.576;2023-07-22T14:14:03;23.80;69.50
42907;DHT22;28552;51.146;6.576;2023-07-22T14:17:04;23.90;68.20
42907;DHT22;28552;51.146;6.576;2023-07-22T14:20:05;24.00;67.90
42907;DHT22;28552;51.146;6.576;2023-07-22T14:23:07;24.10;66.40
42907;DHT22;28552;51.146;6.576;2023-07-22T14:26:07;23.90;65.60
42907;DHT22;28552;51.146;6.576;2023-07-22T14:29:08;23.90;67.10
42907;DHT22;28552;51.146;6.576;2023-07-22T14:32:09;24.10;66.50
42907;DHT22;28552;51.146;6.576;2023-07-22T14:35:09;24.10;66.80
42907;DHT22;28552;51.146;6.576;2023-07-22T14:38:10;24.10;66.70
42907;DHT22;28552;51.146;6.576;2023-07-22T14:41:11;24.00;66.70
42907;DHT22;28552;51.146;6.576;2023-07-22T14:44:12;23.80;66.90
42907;DHT22;28552;51.146;6.576;2023-07-22T14:47:13;23.90;67.10
42907;DHT22;28552;51.146;6.576;2023-07-22T14:50:14;24.00;67.00
42907;DHT22;28552;51.146;6.576;2023-07-22T14:53:14;24.00;67.60
42907;DHT22;28552;51.146;6.576;2023-07-22T14:56:15;24.00;67.30
42907;DHT22;28552;51.146;6.576;2023-07-22T14:59:16;24.00;67.60
42907;DHT22;28552;51.146;6.576;2023-07-22T15:02:16;24.10;66.90
42907;DHT22;28552;51.146;6.576;2023-07-22T15:05:17;24.10;66.50
42907;DHT22;28552;51.146;6.576;2023-07-22T15:08:18;24.20;66.30
42907;DHT22;28552;51.146;6.576;2023-07-22T15:11:18;24.20;66.40
42907;DHT22;28552;51.146;6.576;2023-07-22T15:14:19;24.10;66.40
42907;DHT22;28552;51.146;6.576;2023-07-22T15:17:19;24.00;66.10
42907;DHT22;28552;51.146;6.576;2023-07-22T15:20:20;23.80;66.20
42907;DHT22;28552;51.146;6.576;2023-07-22T15:23:21;23.80;66.00
42907;DHT22;28552;51.146;6.576;2023-07-22T15:26:21;23.80;65.70
42907;DHT22;28552;51.146;6.576;2023-07-22T15:29:22;23.70;65.50
42907;DHT22;28552;51.146;6.576;2023-07-22T15:32:22;23.70;65.80
42907;DHT22;28552;51.146;6.576;2023-07-22T15:35:23;23.60;65.90
42907;DHT22;28552;51.146;6.576;2023-07-22T15:38:24;23.50;66.10
42907;DHT22;28552;51.146;6.576;2023-07-22T15:41:24;23.40;66.60
42907;DHT22;28552;51.146;6.576;2023-07-22T15:44:25;23.40;66.70
42907;DHT22;28552;51.146;6.576;2023-07-22T15:47:27;23.40;66.90
42907;DHT22;28552;51.146;6.576;2023-07-22T15:50:28;23.40;67.00
42907;DHT22;28552;51.146;6.576;2023-07-22T15:53:28;23.30;67.00
42907;DHT22;28552;51.146;6.576;2023-07-22T15:56:29;23.20;67.20
42907;DHT22;28552;51.146;6.576;2023-07-22T15:59:30;23.20;67.50
42907;DHT22;28552;51.146;6.576;2023-07-22T16:02:30;23.20;67.70
42907;DHT22;28552;51.146;6.576;2023-07-22T16:05:31;23.20;67.80
42907;DHT22;28552;51.146;6.576;2023-07-22T16:08:31;23.10;67.80
42907;DHT22;28552;51.146;6.576;2023-07-22T16:11:32;23.10;68.00
42907;DHT22;28552;51.146;6.576;2023-07-22T16:14:33;23.10;68.20
42907;DHT22;28552;51.146;6.576;2023-07-22T16:17:33;23.00;68.20
42907;DHT22;28552;51.146;6.576;2023-07-22T16:20:34;22.90;68.20
42907;DHT22;28552;51.146;6.576;2023-07-22T16:23:35;22.90;68.30
42907;DHT22;28552;51.146;6.576;2023-07-22T16:26:35;22.80;68.00
42907;DHT22;28552;51.146;6.576;2023-07-22T16:29:36;22.80;67.90
42907;DHT22;28552;51.146;6.576;2023-07-22T16:32:37;22.70;67.70
42907;DHT22;28552;51.146;6.576;2023-07-22T16:35:37;22.70;67.70
42907;DHT22;28552;51.146;6.576;2023-07-22T16:38:38;22.70;67.90
42907;DHT22;28552;51.146;6.576;2023-07-22T16:41:38;22.70;67.80
42907;DHT22;28552;51.146;6.576;2023-07-22T16:44:39;22.60;67.80
42907;DHT22;28552;51.146;6.576;2023-07-22T16:47:39;22.60;68.10
42907;DHT22;28552;51.146;6.576;2023-07-22T16:50:40;22.70;68.70
42907;DHT22;28552;51.146;6.576;2023-07-22T16:53:40;22.70;69.30
42907;DHT22;28552;51.146;6.576;2023-07-22T16:56:41;22.60;68.00
42907;DHT22;28552;51.146;6.576;2023-07-22T16:59:42;22.60;68.30
42907;DHT22;28552;51.146;6.576;2023-07-22T17:02:43;22.40;68.70
42907;DHT22;28552;51.146;6.576;2023-07-22T17:05:44;22.30;68.70
42907;DHT22;28552;51.146;6.576;2023-07-22T17:08:44;22.30;68.70
42907;DHT22;28552;51.146;6.576;2023-07-22T17:11:45;22.20;68.90
42907;DHT22;28552;51.146;6.576;2023-07-22T17:14:45;22.20;69.50
42907;DHT22;28552;51.146;6.576;2023-07-22T17:17:46;22.10;69.80
42907;DHT22;28552;51.146;6.576;2023-07-22T17:20:46;22.10;70.20
42907;DHT22;28552;51.146;6.576;2023-07-22T17:23:47;22.00;70.40
42907;DHT22;28552;51.146;6.576;2023-07-22T17:26:47;21.90;70.70
42907;DHT22;28552;51.146;6.576;2023-07-22T17:29:48;21.80;70.70
42907;DHT22;28552;51.146;6.576;2023-07-22T17:32:48;21.80;70.90
42907;DHT22;28552;51.146;6.576;2023-07-22T17:35:51;21.60;70.80
42907;DHT22;28552;51.146;6.576;2023-07-22T17:38:51;21.60;71.90
42907;DHT22;28552;51.146;6.576;2023-07-22T17:41:52;21.50;70.90
42907;DHT22;28552;51.146;6.576;2023-07-22T17:44:52;21.50;71.70
42907;DHT22;28552;51.146;6.576;2023-07-22T17:47:55;21.40;70.90
42907;DHT22;28552;51.146;6.576;2023-07-22T17:50:56;21.40;71.50
42907;DHT22;28552;51.146;6.576;2023-07-22T17:53:56;21.40;71.50
42907;DHT22;28552;51.146;6.576;2023-07-22T17:56:57;21.30;71.80
42907;DHT22;28552;51.146;6.576;2023-07-22T17:59:57;21.40;71.90
42907;DHT22;28552;51.146;6.576;2023-07-22T18:02:58;21.30;72.00
42907;DHT22;28552;51.146;6.576;2023-07-22T18:05:58;21.30;72.00
42907;DHT22;28552;51.146;6.576;2023-07-22T18:08:59;21.20;72.00
42907;DHT22;28552;51.146;6.576;2023-07-22T18:11:59;21.20;72.10
42907;DHT22;28552;51.146;6.576;2023-07-22T18:15:00;21.20;72.10
42907;DHT22;28552;51.146;6.576;2023-07-22T18:18:01;21.20;72.40
42907;DHT22;28552;51.146;6.576;2023-07-22T18:21:01;21.10;72.40
42907;DHT22;28552;51.146;6.576;2023-07-22T18:24:02;21.10;72.50
42907;DHT22;28552;51.146;6.576;2023-07-22T18:27:03;21.10;72.70
42907;DHT22;28552;51.146;6.576;2023-07-22T18:30:04;21.10;72.90
42907;DHT22;28552;51.146;6.576;2023-07-22T18:33:05;21.10;73.20
42907;DHT22;28552;51.146;6.576;2023-07-22T18:36:05;21.00;73.00
42907;DHT22;28552;51.146;6.576;2023-07-22T18:39:06;21.00;73.50
42907;DHT22;28552;51.146;6.576;2023-07-22T18:42:06;20.90;73.70
42907;DHT22;28552;51.146;6.576;2023-07-22T18:45:07;20.80;74.10
42907;DHT22;28552;51.146;6.576;2023-07-22T18:48:08;20.80;73.60
42907;DHT22;28552;51.146;6.576;2023-07-22T18:51:09;20.70;73.80
42907;DHT22;28552;51.146;6.576;2023-07-22T18:54:10;20.70;74.10
42907;DHT22;28552;51.146;6.576;2023-07-22T18:57:10;20.70;74.10
42907;DHT22;28552;51.146;6.576;2023-07-22T19:00:11;20.70;74.20
42907;DHT22;28552;51.146;6.576;2023-07-22T19:03:13;20.60;74.50
42907;DHT22;28552;51.146;6.576;2023-07-22T19:06:13;20.60;74.70
42907;DHT22;28552;51.146;6.576;2023-07-22T19:09:14;20.50;75.00